地図

経路データ

SID SEASON NUMBER BASIN SUBBASIN NAME ISO_TIME NATURE LAT LON WMO_WIND WMO_PRES WMO_AGENCY TRACK_TYPE DIST2LAND LANDFALL IFLAG USA_AGENCY USA_ATCF_ID USA_LAT USA_LON USA_RECORD USA_STATUS USA_WIND USA_PRES USA_SSHS USA_R34_NE USA_R34_SE USA_R34_SW USA_R34_NW USA_R50_NE USA_R50_SE USA_R50_SW USA_R50_NW USA_R64_NE USA_R64_SE USA_R64_SW USA_R64_NW USA_POCI USA_ROCI USA_RMW USA_EYE TOKYO_LAT TOKYO_LON TOKYO_GRADE TOKYO_WIND TOKYO_PRES TOKYO_R50_DIR TOKYO_R50_LONG TOKYO_R50_SHORT TOKYO_R30_DIR TOKYO_R30_LONG TOKYO_R30_SHORT TOKYO_LAND CMA_LAT CMA_LON CMA_CAT CMA_WIND CMA_PRES HKO_LAT HKO_LON HKO_CAT HKO_WIND HKO_PRES NEWDELHI_LAT NEWDELHI_LON NEWDELHI_GRADE NEWDELHI_WIND NEWDELHI_PRES NEWDELHI_CI NEWDELHI_DP NEWDELHI_POCI REUNION_LAT REUNION_LON REUNION_TYPE REUNION_WIND REUNION_PRES REUNION_TNUM REUNION_CI REUNION_RMW REUNION_R34_NE REUNION_R34_SE REUNION_R34_SW REUNION_R34_NW REUNION_R50_NE REUNION_R50_SE REUNION_R50_SW REUNION_R50_NW REUNION_R64_NE REUNION_R64_SE REUNION_R64_SW REUNION_R64_NW BOM_LAT BOM_LON BOM_TYPE BOM_WIND BOM_PRES BOM_TNUM BOM_CI BOM_RMW BOM_R34_NE BOM_R34_SE BOM_R34_SW BOM_R34_NW BOM_R50_NE BOM_R50_SE BOM_R50_SW BOM_R50_NW BOM_R64_NE BOM_R64_SE BOM_R64_SW BOM_R64_NW BOM_ROCI BOM_POCI BOM_EYE BOM_POS_METHOD BOM_PRES_METHOD NADI_LAT NADI_LON NADI_CAT NADI_WIND NADI_PRES WELLINGTON_LAT WELLINGTON_LON WELLINGTON_WIND WELLINGTON_PRES DS824_LAT DS824_LON DS824_STAGE DS824_WIND DS824_PRES TD9636_LAT TD9636_LON TD9636_STAGE TD9636_WIND TD9636_PRES TD9635_LAT TD9635_LON TD9635_WIND TD9635_PRES TD9635_ROCI NEUMANN_LAT NEUMANN_LON NEUMANN_CLASS NEUMANN_WIND NEUMANN_PRES MLC_LAT MLC_LON MLC_CLASS MLC_WIND MLC_PRES USA_GUST BOM_GUST BOM_GUST_PER REUNION_GUST REUNION_GUST_PER USA_SEAHGT USA_SEARAD_NE USA_SEARAD_SE USA_SEARAD_SW USA_SEARAD_NW STORM_SPEED STORM_DIR
1923061S18121 1923 17 SI WA NOT_NAMED 1923-03-01 12:00:00 NR -18.2000 121.200 main 69 69 __________O___ -1 -18.2000 121.200 7 3 252
1923061S18121 1923 17 SI WA NOT_NAMED 1923-03-01 15:00:00 NR -18.2502 121.042 main 81 81 __________P___ -1 -18.2502 121.042 7 3 250
1923061S18121 1923 17 SI WA NOT_NAMED 1923-03-01 18:00:00 NR -18.3102 120.888 main 90 90 __________P___ -1 -18.3102 120.888 7 3 244
1923061S18121 1923 17 SI WA NOT_NAMED 1923-03-01 21:00:00 NR -18.3901 120.739 main 107 106 __________P___ -1 -18.3901 120.739 7 3 235
1923061S18121 1923 17 SI WA NOT_NAMED 1923-03-02 00:00:00 NR -18.5000 120.600 main 114 114 __________O___ -1 -18.5000 120.600 7 4 225
1923061S18121 1923 17 SI WA NOT_NAMED 1923-03-02 03:00:00 NR -18.6461 120.470 main 114 103 __________P___ -1 -18.6461 120.470 7 4 218
1923061S18121 1923 17 SI WA NOT_NAMED 1923-03-02 06:00:00 NR -18.8197 120.337 main 109 94 __________P___ -1 -18.8197 120.337 7 5 217
1923061S18121 1923 17 SI WA NOT_NAMED 1923-03-02 09:00:00 NR -19.0085 120.186 main 94 78 __________P___ -1 -19.0085 120.186 7 5 220
1923061S18121 1923 17 SI WA NOT_NAMED 1923-03-02 12:00:00 NR -19.2000 120.000 main 81 74 __________O___ -1 -19.2000 120.000 7 5 235
1923061S18121 1923 17 SI WA NOT_NAMED 1923-03-02 15:00:00 NR -19.3022 119.744 main 78 70 __________P___ -1 -19.3022 119.744 7 6 247
1923061S18121 1923 17 SI WA NOT_NAMED 1923-03-02 18:00:00 NR -19.4154 119.457 main 74 55 __________P___ -1 -19.4154 119.457 7 6 242
1923061S18121 1923 17 SI WA NOT_NAMED 1923-03-02 21:00:00 NR -19.5959 119.166 main 55 30 __________P___ -1 -19.5959 119.166 7 7 227
1923061S18121 1923 17 SI WA NOT_NAMED 1923-03-03 00:00:00 NR -19.9000 118.900 main 30 0 __________O___ -1 -19.9000 118.900 7 9 209
1923061S18121 1923 17 SI WA NOT_NAMED 1923-03-03 03:00:00 NR -20.4077 118.692 main 0 0 __________P___ -1 -20.4077 118.692 7 12 198
1923061S18121 1923 17 SI WA NOT_NAMED 1923-03-03 06:00:00 NR -21.0374 118.513 main 0 0 __________P___ -1 -21.0374 118.513 7 14 194
1923061S18121 1923 17 SI WA NOT_NAMED 1923-03-03 09:00:00 NR -21.7234 118.352 main 0 0 __________P___ -1 -21.7234 118.352 7 14 192
1923061S18121 1923 17 SI WA NOT_NAMED 1923-03-03 12:00:00 NR -22.4000 118.200 main 0 0 __________O___ -1 -22.4000 118.200 7 13 189
1923061S18121 1923 17 SI WA NOT_NAMED 1923-03-03 15:00:00 NR -23.0432 118.135 main 0 0 __________P___ -1 -23.0432 118.135 7 13 186
1923061S18121 1923 17 SI WA NOT_NAMED 1923-03-03 18:00:00 NR -23.6549 118.063 main 0 0 __________P___ -1 -23.6549 118.063 7 12 190
1923061S18121 1923 17 SI WA NOT_NAMED 1923-03-03 21:00:00 NR -24.1893 117.910 main 0 0 __________P___ -1 -24.1893 117.910 7 10 204
1923061S18121 1923 17 SI WA NOT_NAMED 1923-03-04 00:00:00 NR -24.6000 117.600 main 0 0 __________O___ -1 -24.6000 117.600 7 10 231
1923061S18121 1923 17 SI WA NOT_NAMED 1923-03-04 03:00:00 NR -24.8390 117.040 main 0 0 __________P___ -1 -24.8390 117.040 7 12 253
1923061S18121 1923 17 SI WA NOT_NAMED 1923-03-04 06:00:00 NR -24.9521 116.321 main 0 0 __________P___ -1 -24.9521 116.321 7 14 264
1923061S18121 1923 17 SI WA NOT_NAMED 1923-03-04 09:00:00 NR -24.9888 115.517 main 0 0 __________P___ -1 -24.9888 115.517 7 15 268
1923061S18121 1923 17 SI WA NOT_NAMED 1923-03-04 12:00:00 NR -25.0000 114.700 main 0 0 __________O___ -1 -25.0000 114.700 7 14 268
1923061S18121 1923 17 SI WA NOT_NAMED 1923-03-04 15:00:00 NR -25.0279 113.926 main 0 0 __________P___ -1 -25.0279 113.926 7 14 267
1923061S18121 1923 17 SI WA NOT_NAMED 1923-03-04 18:00:00 NR -25.0755 113.194 main 46 46 __________P___ -1 -25.0755 113.194 7 13 265
1923061S18121 1923 17 SI WA NOT_NAMED 1923-03-04 21:00:00 NR -25.1354 112.490 main 112 112 __________P___ -1 -25.1354 112.490 7 13 264
1923061S18121 1923 17 SI WA NOT_NAMED 1923-03-05 00:00:00 NR -25.2000 111.800 main 169 __________O___ -1 -25.2000 111.800 7 13 264

IBTrACS Databaseについて

本データベースは、米国NOAAが公開する1842年以降の世界の熱帯低気圧のベストトラックデータアーカイブInternational Best Track Archive for Climate Stewardship (IBTrACS)を、ウェブで閲覧しやすい形式に変換したものです。

最終更新日:2021-12-08